sensor_id;sensor_type;location;lat;lon;timestamp;pressure;altitude;pressure_sealevel;temperature
64947;BMP280;51469;52.150;4.682;2023-03-01T00:01:12;103506.34;;;4.62
64947;BMP280;51469;52.150;4.682;2023-03-01T00:03:38;103511.28;;;4.60
64947;BMP280;51469;52.150;4.682;2023-03-01T00:06:04;103512.31;;;4.59
64947;BMP280;51469;52.150;4.682;2023-03-01T00:08:30;103507.16;;;4.58
64947;BMP280;51469;52.150;4.682;2023-03-01T00:11:12;103506.88;;;4.59
64947;BMP280;51469;52.150;4.682;2023-03-01T00:13:38;103504.13;;;4.54
64947;BMP280;51469;52.150;4.682;2023-03-01T00:16:08;103501.44;;;4.49
64947;BMP280;51469;52.150;4.682;2023-03-01T00:18:34;103496.53;;;4.46
64947;BMP280;51469;52.150;4.682;2023-03-01T00:20:59;103478.22;;;4.27
64947;BMP280;51469;52.150;4.682;2023-03-01T00:23:25;103496.16;;;4.33
64947;BMP280;51469;52.150;4.682;2023-03-01T00:25:51;103492.09;;;4.30
64947;BMP280;51469;52.150;4.682;2023-03-01T00:28:17;103487.19;;;4.27
64947;BMP280;51469;52.150;4.682;2023-03-01T00:30:42;103494.25;;;4.28
64947;BMP280;51469;52.150;4.682;2023-03-01T00:33:08;103490.97;;;4.26
64947;BMP280;51469;52.150;4.682;2023-03-01T00:35:33;103486.06;;;4.23
64947;BMP280;51469;52.150;4.682;2023-03-01T00:37:59;103489.06;;;4.22
64947;BMP280;51469;52.150;4.682;2023-03-01T00:40:25;103482.25;;;4.19
64947;BMP280;51469;52.150;4.682;2023-03-01T00:42:50;103482.78;;;4.21
64947;BMP280;51469;52.150;4.682;2023-03-01T00:45:16;103495.84;;;4.19
64947;BMP280;51469;52.150;4.682;2023-03-01T00:47:42;103487.13;;;4.17
64947;BMP280;51469;52.150;4.682;2023-03-01T00:50:08;103488.75;;;4.18
64947;BMP280;51469;52.150;4.682;2023-03-01T00:52:34;103482.53;;;4.18
64947;BMP280;51469;52.150;4.682;2023-03-01T00:54:59;103488.19;;;4.16
64947;BMP280;51469;52.150;4.682;2023-03-01T00:57:24;103484.38;;;4.12
64947;BMP280;51469;52.150;4.682;2023-03-01T00:59:50;103481.38;;;4.14
64947;BMP280;51469;52.150;4.682;2023-03-01T01:02:18;103486.00;;;4.13
64947;BMP280;51469;52.150;4.682;2023-03-01T01:04:43;103483.84;;;4.10
64947;BMP280;51469;52.150;4.682;2023-03-01T01:07:09;103479.50;;;4.09
64947;BMP280;51469;52.150;4.682;2023-03-01T01:09:34;103475.69;;;4.10
64947;BMP280;51469;52.150;4.682;2023-03-01T01:12:00;103476.22;;;4.07
64947;BMP280;51469;52.150;4.682;2023-03-01T01:14:25;103480.59;;;4.18
64947;BMP280;51469;52.150;4.682;2023-03-01T01:16:50;103471.91;;;4.21
64947;BMP280;51469;52.150;4.682;2023-03-01T01:19:16;103469.72;;;4.18
64947;BMP280;51469;52.150;4.682;2023-03-01T01:21:41;103465.94;;;4.19
64947;BMP280;51469;52.150;4.682;2023-03-01T01:24:10;103460.78;;;4.18
64947;BMP280;51469;52.150;4.682;2023-03-01T01:26:36;103455.56;;;4.16
64947;BMP280;51469;52.150;4.682;2023-03-01T01:29:03;103452.81;;;4.11
64947;BMP280;51469;52.150;4.682;2023-03-01T01:31:29;103443.34;;;4.14
64947;BMP280;51469;52.150;4.682;2023-03-01T01:33:55;103450.09;;;4.11
64947;BMP280;51469;52.150;4.682;2023-03-01T01:36:21;103439.25;;;4.11
64947;BMP280;51469;52.150;4.682;2023-03-01T01:38:47;103433.81;;;4.11
64947;BMP280;51469;52.150;4.682;2023-03-01T01:41:14;103431.94;;;4.17
64947;BMP280;51469;52.150;4.682;2023-03-01T01:43:43;103433.38;;;4.24
64947;BMP280;51469;52.150;4.682;2023-03-01T01:46:30;103433.88;;;4.21
64947;BMP280;51469;52.150;4.682;2023-03-01T01:49:15;103415.94;;;4.20
64947;BMP280;51469;52.150;4.682;2023-03-01T01:51:44;103405.00;;;4.05
64947;BMP280;51469;52.150;4.682;2023-03-01T01:55:19;103417.81;;;4.15
64947;BMP280;51469;52.150;4.682;2023-03-01T01:57:29;103417.75;;;4.05
64947;BMP280;51469;52.150;4.682;2023-03-01T01:59:58;103416.41;;;4.02
64947;BMP280;51469;52.150;4.682;2023-03-01T02:02:25;103425.09;;;3.99
64947;BMP280;51469;52.150;4.682;2023-03-01T02:04:55;103428.34;;;3.96
64947;BMP280;51469;52.150;4.682;2023-03-01T02:07:24;103412.56;;;3.98
64947;BMP280;51469;52.150;4.682;2023-03-01T02:09:51;103417.47;;;3.96
64947;BMP280;51469;52.150;4.682;2023-03-01T02:12:20;103396.19;;;3.83
64947;BMP280;51469;52.150;4.682;2023-03-01T02:14:46;103411.47;;;3.94
64947;BMP280;51469;52.150;4.682;2023-03-01T02:17:13;103410.91;;;3.92
64947;BMP280;51469;52.150;4.682;2023-03-01T02:19:56;103417.44;;;3.91
64947;BMP280;51469;52.150;4.682;2023-03-01T02:22:27;103415.81;;;3.90
64947;BMP280;51469;52.150;4.682;2023-03-01T02:28:08;103404.38;;;3.93
64947;BMP280;51469;52.150;4.682;2023-03-01T02:30:35;103415.81;;;3.95
64947;BMP280;51469;52.150;4.682;2023-03-01T02:33:03;103415.53;;;3.97
64947;BMP280;51469;52.150;4.682;2023-03-01T02:35:32;103408.78;;;3.99
64947;BMP280;51469;52.150;4.682;2023-03-01T02:38:00;103409.34;;;4.01
64947;BMP280;51469;52.150;4.682;2023-03-01T02:40:28;103400.72;;;4.14
64947;BMP280;51469;52.150;4.682;2023-03-01T02:42:57;103408.06;;;4.19
64947;BMP280;51469;52.150;4.682;2023-03-01T02:45:23;103401.25;;;4.21
64947;BMP280;51469;52.150;4.682;2023-03-01T02:47:49;103401.25;;;4.21
64947;BMP280;51469;52.150;4.682;2023-03-01T02:50:46;103399.09;;;4.23
64947;BMP280;51469;52.150;4.682;2023-03-01T02:56:17;103392.34;;;4.26
64947;BMP280;51469;52.150;4.682;2023-03-01T02:58:43;103390.97;;;4.28
64947;BMP280;51469;52.150;4.682;2023-03-01T03:01:16;103383.38;;;4.30
64947;BMP280;51469;52.150;4.682;2023-03-01T03:03:42;103379.00;;;4.34
64947;BMP280;51469;52.150;4.682;2023-03-01T03:06:08;103366.53;;;4.38
64947;BMP280;51469;52.150;4.682;2023-03-01T03:08:33;103372.00;;;4.43
64947;BMP280;51469;52.150;4.682;2023-03-01T03:10:59;103364.41;;;4.45
64947;BMP280;51469;52.150;4.682;2023-03-01T03:13:24;103364.97;;;4.47
64947;BMP280;51469;52.150;4.682;2023-03-01T03:15:54;103368.72;;;4.51
64947;BMP280;51469;52.150;4.682;2023-03-01T03:18:19;103369.84;;;4.55
64947;BMP280;51469;52.150;4.682;2023-03-01T03:20:45;103367.16;;;4.60
64947;BMP280;51469;52.150;4.682;2023-03-01T03:23:11;103363.91;;;4.63
64947;BMP280;51469;52.150;4.682;2023-03-01T03:25:37;103360.63;;;4.66
64947;BMP280;51469;52.150;4.682;2023-03-01T03:28:04;103360.38;;;4.68
64947;BMP280;51469;52.150;4.682;2023-03-01T03:30:36;103363.91;;;4.68
64947;BMP280;51469;52.150;4.682;2023-03-01T03:33:04;103356.81;;;4.67
64947;BMP280;51469;52.150;4.682;2023-03-01T03:35:33;103364.44;;;4.70
64947;BMP280;51469;52.150;4.682;2023-03-01T03:38:01;103362.25;;;4.72
64947;BMP280;51469;52.150;4.682;2023-03-01T03:40:30;103357.34;;;4.74
64947;BMP280;51469;52.150;4.682;2023-03-01T03:42:55;103361.19;;;4.73
64947;BMP280;51469;52.150;4.682;2023-03-01T03:45:21;103364.97;;;4.72
64947;BMP280;51469;52.150;4.682;2023-03-01T03:47:46;103349.47;;;4.73
64947;BMP280;51469;52.150;4.682;2023-03-01T03:50:14;103352.47;;;4.77
64947;BMP280;51469;52.150;4.682;2023-03-01T03:52:40;103345.16;;;4.77
64947;BMP280;51469;52.150;4.682;2023-03-01T03:55:08;103341.59;;;4.71
64947;BMP280;51469;52.150;4.682;2023-03-01T03:57:42;103341.03;;;4.64
64947;BMP280;51469;52.150;4.682;2023-03-01T04:00:10;103351.91;;;4.64
64947;BMP280;51469;52.150;4.682;2023-03-01T04:02:47;103349.47;;;4.63
64947;BMP280;51469;52.150;4.682;2023-03-01T04:05:15;103343.19;;;4.62
64947;BMP280;51469;52.150;4.682;2023-03-01T04:07:42;103350.31;;;4.63
64947;BMP280;51469;52.150;4.682;2023-03-01T04:10:12;103350.84;;;4.60
64947;BMP280;51469;52.150;4.682;2023-03-01T04:12:38;103350.84;;;4.60
64947;BMP280;51469;52.150;4.682;2023-03-01T04:15:05;103354.63;;;4.64
64947;BMP280;51469;52.150;4.682;2023-03-01T04:17:45;103343.19;;;4.62
64947;BMP280;51469;52.150;4.682;2023-03-01T04:20:25;103350.31;;;4.63
64947;BMP280;51469;52.150;4.682;2023-03-01T04:22:59;103345.94;;;4.57
64947;BMP280;51469;52.150;4.682;2023-03-01T04:25:54;103346.44;;;4.54
64947;BMP280;51469;52.150;4.682;2023-03-01T04:30:46;103348.09;;;4.45
64947;BMP280;51469;52.150;4.682;2023-03-01T04:33:12;103342.09;;;4.38
64947;BMP280;51469;52.150;4.682;2023-03-01T04:35:38;103337.72;;;4.32
64947;BMP280;51469;52.150;4.682;2023-03-01T04:38:04;103331.47;;;4.32
64947;BMP280;51469;52.150;4.682;2023-03-01T04:40:30;103335.00;;;4.27
64947;BMP280;51469;52.150;4.682;2023-03-01T04:42:55;103337.16;;;4.25
64947;BMP280;51469;52.150;4.682;2023-03-01T04:45:21;103330.09;;;4.24
64947;BMP280;51469;52.150;4.682;2023-03-01T04:47:46;103329.00;;;4.20
64947;BMP280;51469;52.150;4.682;2023-03-01T04:50:15;103325.97;;;4.17
64947;BMP280;51469;52.150;4.682;2023-03-01T04:52:40;103322.97;;;4.13
64947;BMP280;51469;52.150;4.682;2023-03-01T04:55:06;103316.75;;;4.13
64947;BMP280;51469;52.150;4.682;2023-03-01T04:57:34;103314.81;;;4.08
64947;BMP280;51469;52.150;4.682;2023-03-01T04:59:59;103311.00;;;3.99
64947;BMP280;51469;52.150;4.682;2023-03-01T05:02:25;103312.03;;;3.93
64947;BMP280;51469;52.150;4.682;2023-03-01T05:04:50;103314.75;;;3.88
64947;BMP280;51469;52.150;4.682;2023-03-01T05:07:16;103305.81;;;3.88
64947;BMP280;51469;52.150;4.682;2023-03-01T05:09:45;103315.84;;;3.92
64947;BMP280;51469;52.150;4.682;2023-03-01T05:12:12;103313.94;;;3.93
64947;BMP280;51469;52.150;4.682;2023-03-01T05:14:37;103306.88;;;3.97
64947;BMP280;51469;52.150;4.682;2023-03-01T05:17:03;103306.13;;;4.01
64947;BMP280;51469;52.150;4.682;2023-03-01T05:19:30;103313.16;;;3.97
64947;BMP280;51469;52.150;4.682;2023-03-01T05:21:56;103305.50;;;3.84
64947;BMP280;51469;52.150;4.682;2023-03-01T05:24:31;103299.53;;;3.92
64947;BMP280;51469;52.150;4.682;2023-03-01T05:26:57;103299.53;;;3.92
64947;BMP280;51469;52.150;4.682;2023-03-01T05:29:24;103290.88;;;3.90
64947;BMP280;51469;52.150;4.682;2023-03-01T05:31:54;103289.47;;;3.83
64947;BMP280;51469;52.150;4.682;2023-03-01T05:34:24;103279.16;;;3.80
64947;BMP280;51469;52.150;4.682;2023-03-01T05:36:50;103276.41;;;3.75
64947;BMP280;51469;52.150;4.682;2023-03-01T05:39:21;103272.31;;;3.72
64947;BMP280;51469;52.150;4.682;2023-03-01T05:41:48;103277.75;;;3.72
64947;BMP280;51469;52.150;4.682;2023-03-01T05:44:13;103265.84;;;3.78
64947;BMP280;51469;52.150;4.682;2023-03-01T05:46:38;103254.97;;;3.78
64947;BMP280;51469;52.150;4.682;2023-03-01T05:49:04;103261.50;;;3.82
64947;BMP280;51469;52.150;4.682;2023-03-01T05:51:30;103269.09;;;3.80
64947;BMP280;51469;52.150;4.682;2023-03-01T05:53:55;103263.59;;;3.70
64947;BMP280;51469;52.150;4.682;2023-03-01T05:56:21;103260.88;;;3.65
64947;BMP280;51469;52.150;4.682;2023-03-01T05:58:48;103264.69;;;3.64
64947;BMP280;51469;52.150;4.682;2023-03-01T06:01:14;103258.69;;;3.62
64947;BMP280;51469;52.150;4.682;2023-03-01T06:03:39;103261.97;;;3.69
64947;BMP280;51469;52.150;4.682;2023-03-01T06:06:05;103252.25;;;3.73
64947;BMP280;51469;52.150;4.682;2023-03-01T06:08:30;103257.69;;;3.78
64947;BMP280;51469;52.150;4.682;2023-03-01T06:10:55;103261.97;;;3.69
64947;BMP280;51469;52.150;4.682;2023-03-01T06:13:22;103263.13;;;3.78
64947;BMP280;51469;52.150;4.682;2023-03-01T06:15:48;103262.09;;;3.89
64947;BMP280;51469;52.150;4.682;2023-03-01T06:18:13;103260.97;;;3.95
64947;BMP280;51469;52.150;4.682;2023-03-01T06:20:39;103264.81;;;3.99
64947;BMP280;51469;52.150;4.682;2023-03-01T06:23:04;103263.19;;;4.03
64947;BMP280;51469;52.150;4.682;2023-03-01T06:25:29;103265.13;;;4.08
64947;BMP280;51469;52.150;4.682;2023-03-01T06:27:55;103261.06;;;4.10
64947;BMP280;51469;52.150;4.682;2023-03-01T06:30:22;103264.03;;;4.14
64947;BMP280;51469;52.150;4.682;2023-03-01T06:32:48;103264.31;;;4.07
64947;BMP280;51469;52.150;4.682;2023-03-01T06:35:15;103264.31;;;4.07
64947;BMP280;51469;52.150;4.682;2023-03-01T06:37:43;103261.59;;;4.07
64947;BMP280;51469;52.150;4.682;2023-03-01T06:40:10;103266.47;;;4.15
64947;BMP280;51469;52.150;4.682;2023-03-01T06:42:38;103259.41;;;4.14
64947;BMP280;51469;52.150;4.682;2023-03-01T06:45:05;103258.59;;;4.14
64947;BMP280;51469;52.150;4.682;2023-03-01T06:47:31;103259.44;;;4.09
64947;BMP280;51469;52.150;4.682;2023-03-01T06:49:58;103245.22;;;3.92
64947;BMP280;51469;52.150;4.682;2023-03-01T06:52:24;103264.25;;;3.97
64947;BMP280;51469;52.150;4.682;2023-03-01T06:54:49;103272.13;;;3.94
64947;BMP280;51469;52.150;4.682;2023-03-01T06:57:14;103268.56;;;3.93
64947;BMP280;51469;52.150;4.682;2023-03-01T06:59:40;103278.38;;;3.89
64947;BMP280;51469;52.150;4.682;2023-03-01T07:02:05;103267.53;;;3.89
64947;BMP280;51469;52.150;4.682;2023-03-01T07:04:31;103267.53;;;3.89
64947;BMP280;51469;52.150;4.682;2023-03-01T07:06:56;103263.13;;;3.93
64947;BMP280;51469;52.150;4.682;2023-03-01T07:09:22;103268.31;;;4.00
64947;BMP280;51469;52.150;4.682;2023-03-01T07:11:48;103270.56;;;4.08
64947;BMP280;51469;52.150;4.682;2023-03-01T07:14:14;103268.06;;;4.11
64947;BMP280;51469;52.150;4.682;2023-03-01T07:16:39;103266.19;;;4.12
64947;BMP280;51469;52.150;4.682;2023-03-01T07:19:05;103274.34;;;4.17
64947;BMP280;51469;52.150;4.682;2023-03-01T07:21:31;103282.25;;;4.18
64947;BMP280;51469;52.150;4.682;2023-03-01T07:23:56;103277.38;;;4.20
64947;BMP280;51469;52.150;4.682;2023-03-01T07:26:22;103282.78;;;4.20
64947;BMP280;51469;52.150;4.682;2023-03-01T07:28:47;103287.13;;;4.21
64947;BMP280;51469;52.150;4.682;2023-03-01T07:31:14;103278.47;;;4.24
64947;BMP280;51469;52.150;4.682;2023-03-01T07:33:39;103279.00;;;4.26
64947;BMP280;51469;52.150;4.682;2023-03-01T07:36:05;103284.72;;;4.30
64947;BMP280;51469;52.150;4.682;2023-03-01T07:38:32;103285.53;;;4.35
64947;BMP280;51469;52.150;4.682;2023-03-01T07:40:59;103288.03;;;4.47
64947;BMP280;51469;52.150;4.682;2023-03-01T07:43:24;103285.59;;;4.50
64947;BMP280;51469;52.150;4.682;2023-03-01T07:45:50;103286.38;;;4.61
64947;BMP280;51469;52.150;4.682;2023-03-01T07:48:15;103286.66;;;4.74
64947;BMP280;51469;52.150;4.682;2023-03-01T07:50:40;103286.66;;;4.95
64947;BMP280;51469;52.150;4.682;2023-03-01T07:53:06;103290.69;;;5.17
64947;BMP280;51469;52.150;4.682;2023-03-01T07:55:31;103287.94;;;5.32
64947;BMP280;51469;52.150;4.682;2023-03-01T07:57:56;103280.53;;;5.48
64947;BMP280;51469;52.150;4.682;2023-03-01T08:00:22;103286.22;;;5.56
64947;BMP280;51469;52.150;4.682;2023-03-01T08:02:47;103292.41;;;5.72
64947;BMP280;51469;52.150;4.682;2023-03-01T08:05:13;103291.78;;;5.85
64947;BMP280;51469;52.150;4.682;2023-03-01T08:07:38;103297.16;;;6.05
64947;BMP280;51469;52.150;4.682;2023-03-01T08:10:04;103290.00;;;6.14
64947;BMP280;51469;52.150;4.682;2023-03-01T08:12:29;103287.81;;;6.21
64947;BMP280;51469;52.150;4.682;2023-03-01T08:14:55;103286.94;;;6.25
64947;BMP280;51469;52.150;4.682;2023-03-01T08:17:20;103279.00;;;6.34
64947;BMP280;51469;52.150;4.682;2023-03-01T08:19:46;103275.56;;;6.52
64947;BMP280;51469;52.150;4.682;2023-03-01T08:22:11;103264.59;;;6.62
64947;BMP280;51469;52.150;4.682;2023-03-01T08:24:36;103260.38;;;6.69
64947;BMP280;51469;52.150;4.682;2023-03-01T08:27:03;103264.25;;;6.92
64947;BMP280;51469;52.150;4.682;2023-03-01T08:29:31;103259.50;;;7.03
64947;BMP280;51469;52.150;4.682;2023-03-01T08:31:56;103265.66;;;7.13
64947;BMP280;51469;52.150;4.682;2023-03-01T08:34:21;103265.44;;;7.33
64947;BMP280;51469;52.150;4.682;2023-03-01T08:36:47;103262.97;;;7.55
64947;BMP280;51469;52.150;4.682;2023-03-01T08:39:15;103260.00;;;7.70
64947;BMP280;51469;52.150;4.682;2023-03-01T08:41:41;103263.13;;;7.82
64947;BMP280;51469;52.150;4.682;2023-03-01T08:44:07;103260.84;;;7.89
64947;BMP280;51469;52.150;4.682;2023-03-01T08:46:36;103256.19;;;8.08
64947;BMP280;51469;52.150;4.682;2023-03-01T08:49:07;103255.44;;;8.21
64947;BMP280;51469;52.150;4.682;2023-03-01T08:51:33;103255.09;;;8.41
64947;BMP280;51469;52.150;4.682;2023-03-01T08:54:03;103256.50;;;8.52
64947;BMP280;51469;52.150;4.682;2023-03-01T08:56:28;103259.03;;;8.94
64947;BMP280;51469;52.150;4.682;2023-03-01T08:58:53;103264.03;;;9.69
64947;BMP280;51469;52.150;4.682;2023-03-01T09:03:54;103244.78;;;10.96
64947;BMP280;51469;52.150;4.682;2023-03-01T09:06:19;103249.84;;;11.28
64947;BMP280;51469;52.150;4.682;2023-03-01T09:08:47;103241.28;;;11.72
64947;BMP280;51469;52.150;4.682;2023-03-01T09:11:15;103243.72;;;11.48
64947;BMP280;51469;52.150;4.682;2023-03-01T09:13:42;103246.63;;;11.34
64947;BMP280;51469;52.150;4.682;2023-03-01T09:16:08;103242.69;;;11.01
64947;BMP280;51469;52.150;4.682;2023-03-01T09:18:34;103226.66;;;10.78
64947;BMP280;51469;52.150;4.682;2023-03-01T09:21:15;103234.91;;;10.56
64947;BMP280;51469;52.150;4.682;2023-03-01T09:23:45;103237.81;;;10.51
64947;BMP280;51469;52.150;4.682;2023-03-01T09:26:14;103235.91;;;10.60
64947;BMP280;51469;52.150;4.682;2023-03-01T09:28:41;103234.47;;;11.18
64947;BMP280;51469;52.150;4.682;2023-03-01T09:31:07;103227.03;;;12.04
64947;BMP280;51469;52.150;4.682;2023-03-01T09:33:33;103220.53;;;12.54
64947;BMP280;51469;52.150;4.682;2023-03-01T09:36:01;103219.19;;;12.98
64947;BMP280;51469;52.150;4.682;2023-03-01T09:38:27;103219.44;;;13.46
64947;BMP280;51469;52.150;4.682;2023-03-01T09:40:53;103217.81;;;13.45
64947;BMP280;51469;52.150;4.682;2023-03-01T09:43:25;103218.69;;;13.37
64947;BMP280;51469;52.150;4.682;2023-03-01T09:45:55;103211.91;;;13.14
64947;BMP280;51469;52.150;4.682;2023-03-01T09:48:26;103220.25;;;12.85
64947;BMP280;51469;52.150;4.682;2023-03-01T09:50:52;103213.19;;;12.67
64947;BMP280;51469;52.150;4.682;2023-03-01T09:53:20;103221.81;;;12.65
64947;BMP280;51469;52.150;4.682;2023-03-01T09:56:02;103214.97;;;12.25
64947;BMP280;51469;52.150;4.682;2023-03-01T09:58:33;103221.03;;;12.02
64947;BMP280;51469;52.150;4.682;2023-03-01T10:01:28;103223.03;;;11.76
64947;BMP280;51469;52.150;4.682;2023-03-01T10:04:05;103222.84;;;11.55
64947;BMP280;51469;52.150;4.682;2023-03-01T10:06:35;103220.91;;;11.47
64947;BMP280;51469;52.150;4.682;2023-03-01T10:09:10;103217.53;;;11.42
64947;BMP280;51469;52.150;4.682;2023-03-01T10:11:43;103225.16;;;11.45
64947;BMP280;51469;52.150;4.682;2023-03-01T10:14:51;103218.50;;;11.29
64947;BMP280;51469;52.150;4.682;2023-03-01T10:17:43;103214.75;;;11.25
64947;BMP280;51469;52.150;4.682;2023-03-01T10:20:20;103212.34;;;11.23
64947;BMP280;51469;52.150;4.682;2023-03-01T10:22:46;103202.47;;;11.05
64947;BMP280;51469;52.150;4.682;2023-03-01T10:25:17;103202.19;;;11.24
64947;BMP280;51469;52.150;4.682;2023-03-01T10:27:55;103194.06;;;11.19
64947;BMP280;51469;52.150;4.682;2023-03-01T10:32:53;103178.88;;;11.30
64947;BMP280;51469;52.150;4.682;2023-03-01T10:35:25;103180.50;;;11.65
64947;BMP280;51469;52.150;4.682;2023-03-01T10:40:23;103164.47;;;11.75
64947;BMP280;51469;52.150;4.682;2023-03-01T10:42:49;103165.28;;;11.76
64947;BMP280;51469;52.150;4.682;2023-03-01T10:50:31;103154.22;;;11.93
64947;BMP280;51469;52.150;4.682;2023-03-01T10:53:00;103156.47;;;11.91
64947;BMP280;51469;52.150;4.682;2023-03-01T10:55:36;103153.16;;;11.60
64947;BMP280;51469;52.150;4.682;2023-03-01T10:58:19;103154.91;;;11.73
64947;BMP280;51469;52.150;4.682;2023-03-01T11:00:51;103157.81;;;11.85
64947;BMP280;51469;52.150;4.682;2023-03-01T11:03:21;103153.28;;;11.72
64947;BMP280;51469;52.150;4.682;2023-03-01T11:08:43;103152.94;;;11.82
64947;BMP280;51469;52.150;4.682;2023-03-01T11:13:47;103150.19;;;12.28
64947;BMP280;51469;52.150;4.682;2023-03-01T11:16:14;103144.19;;;11.97
64947;BMP280;51469;52.150;4.682;2023-03-01T11:18:39;103138.59;;;12.14
64947;BMP280;51469;52.150;4.682;2023-03-01T11:21:06;103127.25;;;12.24
64947;BMP280;51469;52.150;4.682;2023-03-01T11:23:34;103114.91;;;12.30
64947;BMP280;51469;52.150;4.682;2023-03-01T11:26:05;103108.88;;;11.99
64947;BMP280;51469;52.150;4.682;2023-03-01T11:28:32;103111.16;;;11.97
64947;BMP280;51469;52.150;4.682;2023-03-01T11:31:05;103108.34;;;12.43
64947;BMP280;51469;52.150;4.682;2023-03-01T11:33:50;103103.94;;;12.50
64947;BMP280;51469;52.150;4.682;2023-03-01T11:36:32;103109.38;;;12.30
64947;BMP280;51469;52.150;4.682;2023-03-01T11:39:27;103109.59;;;12.16
64947;BMP280;51469;52.150;4.682;2023-03-01T11:42:17;103101.31;;;12.25
64947;BMP280;51469;52.150;4.682;2023-03-01T11:44:46;103100.44;;;12.62
64947;BMP280;51469;52.150;4.682;2023-03-01T11:58:59;103099.38;;;12.75
64947;BMP280;51469;52.150;4.682;2023-03-01T12:07:14;103080.91;;;12.96
64947;BMP280;51469;52.150;4.682;2023-03-01T12:15:35;103072.47;;;12.92
64947;BMP280;51469;52.150;4.682;2023-03-01T12:20:58;103060.25;;;13.02
64947;BMP280;51469;52.150;4.682;2023-03-01T12:26:27;103052.03;;;13.14
64947;BMP280;51469;52.150;4.682;2023-03-01T12:31:47;103047.91;;;13.20
64947;BMP280;51469;52.150;4.682;2023-03-01T12:37:18;103050.97;;;13.06
64947;BMP280;51469;52.150;4.682;2023-03-01T12:45:42;103039.56;;;12.96
64947;BMP280;51469;52.150;4.682;2023-03-01T12:50:52;103037.28;;;12.98
64947;BMP280;51469;52.150;4.682;2023-03-01T12:53:34;103048.53;;;13.05
64947;BMP280;51469;52.150;4.682;2023-03-01T12:56:12;103054.78;;;13.14
64947;BMP280;51469;52.150;4.682;2023-03-01T13:01:22;103037.53;;;13.05
64947;BMP280;51469;52.150;4.682;2023-03-01T13:04:17;103040.56;;;13.24
64947;BMP280;51469;52.150;4.682;2023-03-01T13:06:58;103026.13;;;13.39
64947;BMP280;51469;52.150;4.682;2023-03-01T13:20:18;103006.09;;;13.18
64947;BMP280;51469;52.150;4.682;2023-03-01T13:22:46;103009.72;;;13.42
64947;BMP280;51469;52.150;4.682;2023-03-01T13:25:19;102999.59;;;13.46
64947;BMP280;51469;52.150;4.682;2023-03-01T13:27:46;102999.25;;;13.36
64947;BMP280;51469;52.150;4.682;2023-03-01T13:33:38;102987.19;;;13.76
64947;BMP280;51469;52.150;4.682;2023-03-01T13:36:06;102988.44;;;13.91
64947;BMP280;51469;52.150;4.682;2023-03-01T13:46:47;102973.28;;;13.73
64947;BMP280;51469;52.150;4.682;2023-03-01T13:49:16;102959.88;;;13.59
64947;BMP280;51469;52.150;4.682;2023-03-01T13:51:46;102952.38;;;13.36
64947;BMP280;51469;52.150;4.682;2023-03-01T13:54:14;102948.22;;;13.42
64947;BMP280;51469;52.150;4.682;2023-03-01T13:56:40;102948.59;;;13.52
64947;BMP280;51469;52.150;4.682;2023-03-01T13:59:16;102948.81;;;13.35
64947;BMP280;51469;52.150;4.682;2023-03-01T14:01:52;102949.13;;;13.22
64947;BMP280;51469;52.150;4.682;2023-03-01T14:04:30;102943.81;;;13.05
64947;BMP280;51469;52.150;4.682;2023-03-01T14:09:40;102945.91;;;13.20
64947;BMP280;51469;52.150;4.682;2023-03-01T14:12:19;102932.00;;;13.04
64947;BMP280;51469;52.150;4.682;2023-03-01T14:14:56;102923.63;;;13.37
64947;BMP280;51469;52.150;4.682;2023-03-01T14:20:21;102921.09;;;13.56
64947;BMP280;51469;52.150;4.682;2023-03-01T14:22:48;102911.25;;;13.43
64947;BMP280;51469;52.150;4.682;2023-03-01T14:25:26;102906.19;;;13.33
64947;BMP280;51469;52.150;4.682;2023-03-01T14:28:24;102907.88;;;13.37
64947;BMP280;51469;52.150;4.682;2023-03-01T14:30:54;102888.00;;;13.32
64947;BMP280;51469;52.150;4.682;2023-03-01T14:33:34;102889.06;;;13.39
64947;BMP280;51469;52.150;4.682;2023-03-01T14:38:33;102890.09;;;13.35
64947;BMP280;51469;52.150;4.682;2023-03-01T14:41:03;102891.59;;;13.44
64947;BMP280;51469;52.150;4.682;2023-03-01T14:43:30;102881.09;;;13.02
64947;BMP280;51469;52.150;4.682;2023-03-01T14:45:56;102876.28;;;12.87
64947;BMP280;51469;52.150;4.682;2023-03-01T14:48:21;102868.44;;;12.89
64947;BMP280;51469;52.150;4.682;2023-03-01T14:50:48;102861.91;;;13.05
64947;BMP280;51469;52.150;4.682;2023-03-01T14:53:23;102870.34;;;13.21
64947;BMP280;51469;52.150;4.682;2023-03-01T14:55:52;102851.00;;;12.97
64947;BMP280;51469;52.150;4.682;2023-03-01T14:58:22;102873.06;;;13.09
64947;BMP280;51469;52.150;4.682;2023-03-01T15:00:54;102872.56;;;12.71
64947;BMP280;51469;52.150;4.682;2023-03-01T15:03:31;102872.66;;;12.74
64947;BMP280;51469;52.150;4.682;2023-03-01T15:05:59;102872.41;;;12.67
64947;BMP280;51469;52.150;4.682;2023-03-01T15:08:26;102865.25;;;12.87
64947;BMP280;51469;52.150;4.682;2023-03-01T15:13:39;102869.53;;;12.96
64947;BMP280;51469;52.150;4.682;2023-03-01T15:16:08;102866.19;;;12.91
64947;BMP280;51469;52.150;4.682;2023-03-01T15:18:35;102868.69;;;12.72
64947;BMP280;51469;52.150;4.682;2023-03-01T15:21:13;102860.63;;;12.67
64947;BMP280;51469;52.150;4.682;2023-03-01T15:23:40;102855.00;;;12.63
64947;BMP280;51469;52.150;4.682;2023-03-01T15:26:06;102846.19;;;12.82
64947;BMP280;51469;52.150;4.682;2023-03-01T15:28:40;102840.25;;;12.92
64947;BMP280;51469;52.150;4.682;2023-03-01T15:31:22;102836.38;;;12.72
64947;BMP280;51469;52.150;4.682;2023-03-01T15:33:48;102844.53;;;12.57
64947;BMP280;51469;52.150;4.682;2023-03-01T15:36:40;102836.78;;;12.83
64947;BMP280;51469;52.150;4.682;2023-03-01T15:39:27;102844.22;;;12.82
64947;BMP280;51469;52.150;4.682;2023-03-01T15:41:54;102846.38;;;12.65
64947;BMP280;51469;52.150;4.682;2023-03-01T15:44:28;102831.34;;;12.30
64947;BMP280;51469;52.150;4.682;2023-03-01T15:46:54;102854.25;;;12.42
64947;BMP280;51469;52.150;4.682;2023-03-01T15:52:01;102843.31;;;12.34
64947;BMP280;51469;52.150;4.682;2023-03-01T15:54:28;102846.53;;;12.48
64947;BMP280;51469;52.150;4.682;2023-03-01T15:56:54;102842.41;;;12.42
64947;BMP280;51469;52.150;4.682;2023-03-01T15:59:20;102841.44;;;12.26
64947;BMP280;51469;52.150;4.682;2023-03-01T16:01:47;102836.16;;;12.21
64947;BMP280;51469;52.150;4.682;2023-03-01T16:04:15;102839.34;;;12.23